sensor_id;sensor_type;location;lat;lon;timestamp;P1;durP1;ratioP1;P2;durP2;ratioP2
55350;SDS011;62194;49.480;10.986;2023-02-03T00:00:02;6.15;;;3.25;;
55350;SDS011;62194;49.480;10.986;2023-02-03T00:00:10;6.05;;;3.20;;
55350;SDS011;62194;49.480;10.986;2023-02-03T00:00:15;5.90;;;3.10;;
55350;SDS011;62194;49.480;10.986;2023-02-03T00:00:21;6.43;;;3.20;;
55350;SDS011;62194;49.480;10.986;2023-02-03T00:00:26;6.87;;;3.27;;
55350;SDS011;62194;49.480;10.986;2023-02-03T00:00:32;5.32;;;3.28;;
55350;SDS011;62194;49.480;10.986;2023-02-03T00:00:38;6.03;;;3.45;;
55350;SDS011;62194;49.480;10.986;2023-02-03T00:00:43;6.63;;;3.50;;
55350;SDS011;62194;49.480;10.986;2023-02-03T00:00:48;6.60;;;3.60;;
55350;SDS011;62194;49.480;10.986;2023-02-03T00:00:53;6.28;;;3.55;;
55350;SDS011;62194;49.480;10.986;2023-02-03T00:00:59;5.97;;;3.50;;
55350;SDS011;62194;49.480;10.986;2023-02-03T00:01:05;5.95;;;3.40;;
55350;SDS011;62194;49.480;10.986;2023-02-03T00:01:10;4.75;;;3.22;;
55350;SDS011;62194;49.480;10.986;2023-02-03T00:01:16;4.17;;;3.10;;
55350;SDS011;62194;49.480;10.986;2023-02-03T00:01:21;4.00;;;3.00;;
55350;SDS011;62194;49.480;10.986;2023-02-03T00:01:27;4.10;;;3.10;;
55350;SDS011;62194;49.480;10.986;2023-02-03T00:01:32;4.57;;;3.38;;
55350;SDS011;62194;49.480;10.986;2023-02-03T00:01:38;4.80;;;3.50;;
55350;SDS011;62194;49.480;10.986;2023-02-03T00:01:43;5.10;;;3.53;;
55350;SDS011;62194;49.480;10.986;2023-02-03T00:01:48;5.38;;;3.60;;
55350;SDS011;62194;49.480;10.986;2023-02-03T00:01:53;5.77;;;3.63;;
55350;SDS011;62194;49.480;10.986;2023-02-03T00:01:59;5.50;;;3.50;;
55350;SDS011;62194;49.480;10.986;2023-02-03T00:02:04;4.97;;;3.30;;
55350;SDS011;62194;49.480;10.986;2023-02-03T00:02:09;5.70;;;3.45;;
55350;SDS011;62194;49.480;10.986;2023-02-03T00:02:15;5.50;;;3.40;;
55350;SDS011;62194;49.480;10.986;2023-02-03T00:02:20;5.67;;;3.30;;
55350;SDS011;62194;49.480;10.986;2023-02-03T00:02:25;5.30;;;3.20;;
55350;SDS011;62194;49.480;10.986;2023-02-03T00:02:30;5.90;;;3.30;;
55350;SDS011;62194;49.480;10.986;2023-02-03T00:02:36;5.53;;;3.23;;
55350;SDS011;62194;49.480;10.986;2023-02-03T00:02:41;5.00;;;3.03;;
55350;SDS011;62194;49.480;10.986;2023-02-03T00:02:46;5.22;;;3.10;;
55350;SDS011;62194;49.480;10.986;2023-02-03T00:02:52;5.20;;;3.10;;
55350;SDS011;62194;49.480;10.986;2023-02-03T00:02:57;4.97;;;3.07;;
55350;SDS011;62194;49.480;10.986;2023-02-03T00:03:02;4.65;;;3.00;;
55350;SDS011;62194;49.480;10.986;2023-02-03T00:03:08;4.70;;;3.00;;
55350;SDS011;62194;49.480;10.986;2023-02-03T00:03:13;4.83;;;3.10;;
55350;SDS011;62194;49.480;10.986;2023-02-03T00:03:18;4.85;;;3.00;;
55350;SDS011;62194;49.480;10.986;2023-02-03T00:03:24;4.70;;;3.00;;
55350;SDS011;62194;49.480;10.986;2023-02-03T00:03:29;5.00;;;3.13;;
55350;SDS011;62194;49.480;10.986;2023-02-03T00:03:34;5.60;;;3.17;;
55350;SDS011;62194;49.480;10.986;2023-02-03T00:03:39;5.50;;;3.10;;
55350;SDS011;62194;49.480;10.986;2023-02-03T00:03:45;5.50;;;3.10;;
55350;SDS011;62194;49.480;10.986;2023-02-03T00:03:50;5.27;;;3.37;;
55350;SDS011;62194;49.480;10.986;2023-02-03T00:03:55;5.30;;;3.47;;
55350;SDS011;62194;49.480;10.986;2023-02-03T00:04:00;4.77;;;3.43;;
55350;SDS011;62194;49.480;10.986;2023-02-03T00:04:06;4.50;;;3.57;;
55350;SDS011;62194;49.480;10.986;2023-02-03T00:04:11;5.18;;;3.78;;
55350;SDS011;62194;49.480;10.986;2023-02-03T00:04:17;5.45;;;3.70;;
55350;SDS011;62194;49.480;10.986;2023-02-03T00:04:22;7.87;;;3.73;;
55350;SDS011;62194;49.480;10.986;2023-02-03T00:04:27;8.83;;;3.80;;
55350;SDS011;62194;49.480;10.986;2023-02-03T00:04:33;9.60;;;3.80;;
55350;SDS011;62194;49.480;10.986;2023-02-03T00:04:38;9.57;;;3.92;;
55350;SDS011;62194;49.480;10.986;2023-02-03T00:04:43;9.27;;;3.90;;
55350;SDS011;62194;49.480;10.986;2023-02-03T00:04:48;9.43;;;3.90;;
55350;SDS011;62194;49.480;10.986;2023-02-03T00:04:54;7.40;;;3.77;;
55350;SDS011;62194;49.480;10.986;2023-02-03T00:04:59;7.80;;;3.80;;
55350;SDS011;62194;49.480;10.986;2023-02-03T00:05:04;7.60;;;3.57;;
55350;SDS011;62194;49.480;10.986;2023-02-03T00:05:10;7.63;;;3.45;;
55350;SDS011;62194;49.480;10.986;2023-02-03T00:05:15;7.43;;;3.47;;
55350;SDS011;62194;49.480;10.986;2023-02-03T00:05:21;7.80;;;3.60;;
55350;SDS011;62194;49.480;10.986;2023-02-03T00:05:26;6.13;;;3.50;;
55350;SDS011;62194;49.480;10.986;2023-02-03T00:05:32;5.45;;;3.50;;
55350;SDS011;62194;49.480;10.986;2023-02-03T00:05:39;4.68;;;3.46;;
55350;SDS011;62194;49.480;10.986;2023-02-03T00:05:45;4.27;;;3.40;;
55350;SDS011;62194;49.480;10.986;2023-02-03T00:05:51;4.38;;;3.38;;
55350;SDS011;62194;49.480;10.986;2023-02-03T00:05:56;4.60;;;3.50;;
55350;SDS011;62194;49.480;10.986;2023-02-03T00:06:02;4.82;;;3.50;;
55350;SDS011;62194;49.480;10.986;2023-02-03T00:06:08;4.97;;;3.50;;
55350;SDS011;62194;49.480;10.986;2023-02-03T00:06:13;5.50;;;3.60;;
55350;SDS011;62194;49.480;10.986;2023-02-03T00:06:19;5.35;;;3.58;;
55350;SDS011;62194;49.480;10.986;2023-02-03T00:06:24;5.13;;;3.50;;
55350;SDS011;62194;49.480;10.986;2023-02-03T00:06:30;4.72;;;3.38;;
55350;SDS011;62194;49.480;10.986;2023-02-03T00:06:36;4.78;;;3.38;;
55350;SDS011;62194;49.480;10.986;2023-02-03T00:06:41;4.33;;;3.40;;
55350;SDS011;62194;49.480;10.986;2023-02-03T00:06:47;4.38;;;3.38;;
55350;SDS011;62194;49.480;10.986;2023-02-03T00:06:53;4.80;;;3.30;;
55350;SDS011;62194;49.480;10.986;2023-02-03T00:06:58;6.00;;;3.30;;
55350;SDS011;62194;49.480;10.986;2023-02-03T00:07:03;6.38;;;3.30;;
55350;SDS011;62194;49.480;10.986;2023-02-03T00:07:10;6.53;;;3.27;;
55350;SDS011;62194;49.480;10.986;2023-02-03T00:07:17;7.97;;;3.30;;
55350;SDS011;62194;49.480;10.986;2023-02-03T00:07:23;7.88;;;3.40;;
55350;SDS011;62194;49.480;10.986;2023-02-03T00:07:28;6.83;;;3.40;;
55350;SDS011;62194;49.480;10.986;2023-02-03T00:07:34;7.00;;;3.58;;
55350;SDS011;62194;49.480;10.986;2023-02-03T00:07:41;7.14;;;3.58;;
55350;SDS011;62194;49.480;10.986;2023-02-03T00:07:48;6.10;;;3.50;;
55350;SDS011;62194;49.480;10.986;2023-02-03T00:07:53;5.70;;;3.50;;
55350;SDS011;62194;49.480;10.986;2023-02-03T00:07:59;5.60;;;3.50;;
55350;SDS011;62194;49.480;10.986;2023-02-03T00:08:04;5.65;;;3.55;;
55350;SDS011;62194;49.480;10.986;2023-02-03T00:08:11;5.12;;;3.50;;
55350;SDS011;62194;49.480;10.986;2023-02-03T00:08:18;5.37;;;3.50;;
55350;SDS011;62194;49.480;10.986;2023-02-03T00:08:24;7.43;;;3.70;;
55350;SDS011;62194;49.480;10.986;2023-02-03T00:08:29;7.63;;;3.77;;
55350;SDS011;62194;49.480;10.986;2023-02-03T00:08:35;7.63;;;3.65;;
55350;SDS011;62194;49.480;10.986;2023-02-03T00:08:42;7.78;;;3.48;;
55350;SDS011;62194;49.480;10.986;2023-02-03T00:08:47;7.20;;;3.35;;
55350;SDS011;62194;49.480;10.986;2023-02-03T00:08:56;5.57;;;3.13;;
55350;SDS011;62194;49.480;10.986;2023-02-03T00:09:03;5.27;;;3.10;;
55350;SDS011;62194;49.480;10.986;2023-02-03T00:09:09;5.72;;;3.15;;
55350;SDS011;62194;49.480;10.986;2023-02-03T00:09:14;6.10;;;3.22;;
55350;SDS011;62194;49.480;10.986;2023-02-03T00:09:19;5.87;;;3.20;;
55350;SDS011;62194;49.480;10.986;2023-02-03T00:09:25;6.17;;;3.23;;
55350;SDS011;62194;49.480;10.986;2023-02-03T00:09:30;6.57;;;3.17;;
55350;SDS011;62194;49.480;10.986;2023-02-03T00:09:36;5.93;;;3.13;;
55350;SDS011;62194;49.480;10.986;2023-02-03T00:09:41;5.67;;;3.20;;
55350;SDS011;62194;49.480;10.986;2023-02-03T00:09:46;6.28;;;3.30;;
55350;SDS011;62194;49.480;10.986;2023-02-03T00:09:51;7.03;;;3.43;;
55350;SDS011;62194;49.480;10.986;2023-02-03T00:09:57;6.70;;;3.43;;
55350;SDS011;62194;49.480;10.986;2023-02-03T00:10:02;7.18;;;3.58;;
55350;SDS011;62194;49.480;10.986;2023-02-03T00:10:08;7.45;;;3.60;;
55350;SDS011;62194;49.480;10.986;2023-02-03T00:10:15;7.30;;;3.58;;
55350;SDS011;62194;49.480;10.986;2023-02-03T00:10:25;5.67;;;3.37;;
55350;SDS011;62194;49.480;10.986;2023-02-03T00:10:30;5.43;;;3.38;;
55350;SDS011;62194;49.480;10.986;2023-02-03T00:10:37;4.54;;;3.38;;
55350;SDS011;62194;49.480;10.986;2023-02-03T00:10:44;4.07;;;3.25;;
55350;SDS011;62194;49.480;10.986;2023-02-03T00:10:50;3.97;;;3.33;;
55350;SDS011;62194;49.480;10.986;2023-02-03T00:10:56;3.97;;;3.37;;
55350;SDS011;62194;49.480;10.986;2023-02-03T00:11:03;4.26;;;3.34;;
55350;SDS011;62194;49.480;10.986;2023-02-03T00:11:09;4.90;;;3.40;;
55350;SDS011;62194;49.480;10.986;2023-02-03T00:11:14;5.18;;;3.47;;
55350;SDS011;62194;49.480;10.986;2023-02-03T00:11:19;5.60;;;3.50;;
55350;SDS011;62194;49.480;10.986;2023-02-03T00:11:26;5.47;;;3.45;;
55350;SDS011;62194;49.480;10.986;2023-02-03T00:11:33;5.30;;;3.53;;
55350;SDS011;62194;49.480;10.986;2023-02-03T00:11:39;5.13;;;3.72;;
55350;SDS011;62194;49.480;10.986;2023-02-03T00:11:44;4.93;;;3.80;;
55350;SDS011;62194;49.480;10.986;2023-02-03T00:11:49;4.87;;;3.80;;
55350;SDS011;62194;49.480;10.986;2023-02-03T00:11:55;4.88;;;3.83;;
55350;SDS011;62194;49.480;10.986;2023-02-03T00:12:00;5.00;;;4.10;;
55350;SDS011;62194;49.480;10.986;2023-02-03T00:12:05;5.20;;;3.87;;
55350;SDS011;62194;49.480;10.986;2023-02-03T00:12:11;5.30;;;3.80;;
55350;SDS011;62194;49.480;10.986;2023-02-03T00:12:16;5.33;;;3.70;;
55350;SDS011;62194;49.480;10.986;2023-02-03T00:12:21;5.37;;;3.70;;
55350;SDS011;62194;49.480;10.986;2023-02-03T00:12:27;6.05;;;3.50;;
55350;SDS011;62194;49.480;10.986;2023-02-03T00:12:33;6.13;;;3.53;;
55350;SDS011;62194;49.480;10.986;2023-02-03T00:12:38;6.60;;;3.60;;
55350;SDS011;62194;49.480;10.986;2023-02-03T00:12:44;6.60;;;3.58;;
55350;SDS011;62194;49.480;10.986;2023-02-03T00:12:50;6.20;;;3.50;;
55350;SDS011;62194;49.480;10.986;2023-02-03T00:12:59;5.26;;;3.45;;
55350;SDS011;62194;49.480;10.986;2023-02-03T00:13:04;4.57;;;3.10;;
55350;SDS011;62194;49.480;10.986;2023-02-03T00:13:10;4.50;;;3.20;;
55350;SDS011;62194;49.480;10.986;2023-02-03T00:13:16;5.00;;;3.33;;
55350;SDS011;62194;49.480;10.986;2023-02-03T00:13:21;5.00;;;3.33;;
55350;SDS011;62194;49.480;10.986;2023-02-03T00:13:27;5.13;;;3.42;;
55350;SDS011;62194;49.480;10.986;2023-02-03T00:13:33;5.10;;;3.50;;
55350;SDS011;62194;49.480;10.986;2023-02-03T00:13:39;4.23;;;3.40;;
55350;SDS011;62194;49.480;10.986;2023-02-03T00:13:44;4.20;;;3.30;;
55350;SDS011;62194;49.480;10.986;2023-02-03T00:13:49;4.70;;;3.37;;
55350;SDS011;62194;49.480;10.986;2023-02-03T00:13:54;7.38;;;3.53;;
55350;SDS011;62194;49.480;10.986;2023-02-03T00:14:00;8.00;;;3.50;;
55350;SDS011;62194;49.480;10.986;2023-02-03T00:14:05;7.90;;;3.53;;
55350;SDS011;62194;49.480;10.986;2023-02-03T00:14:11;8.10;;;3.53;;
55350;SDS011;62194;49.480;10.986;2023-02-03T00:14:17;7.20;;;3.40;;
55350;SDS011;62194;49.480;10.986;2023-02-03T00:14:22;6.00;;;3.40;;
55350;SDS011;62194;49.480;10.986;2023-02-03T00:14:27;5.30;;;3.38;;
55350;SDS011;62194;49.480;10.986;2023-02-03T00:14:32;5.50;;;3.47;;
55350;SDS011;62194;49.480;10.986;2023-02-03T00:14:38;6.07;;;3.50;;
55350;SDS011;62194;49.480;10.986;2023-02-03T00:14:43;6.07;;;3.60;;
55350;SDS011;62194;49.480;10.986;2023-02-03T00:14:48;6.40;;;3.78;;
55350;SDS011;62194;49.480;10.986;2023-02-03T00:14:53;5.90;;;3.60;;
55350;SDS011;62194;49.480;10.986;2023-02-03T00:14:59;5.43;;;3.60;;
55350;SDS011;62194;49.480;10.986;2023-02-03T00:15:04;5.33;;;3.50;;
55350;SDS011;62194;49.480;10.986;2023-02-03T00:15:10;4.88;;;3.65;;
55350;SDS011;62194;49.480;10.986;2023-02-03T00:15:15;4.97;;;3.60;;
55350;SDS011;62194;49.480;10.986;2023-02-03T00:15:21;4.40;;;3.53;;
55350;SDS011;62194;49.480;10.986;2023-02-03T00:15:27;4.47;;;3.40;;
55350;SDS011;62194;49.480;10.986;2023-02-03T00:15:32;5.10;;;3.38;;
55350;SDS011;62194;49.480;10.986;2023-02-03T00:15:37;5.10;;;3.30;;
55350;SDS011;62194;49.480;10.986;2023-02-03T00:15:43;6.13;;;3.27;;
55350;SDS011;62194;49.480;10.986;2023-02-03T00:15:48;6.30;;;3.37;;
55350;SDS011;62194;49.480;10.986;2023-02-03T00:15:53;6.50;;;3.40;;
55350;SDS011;62194;49.480;10.986;2023-02-03T00:15:58;6.33;;;3.50;;
55350;SDS011;62194;49.480;10.986;2023-02-03T00:16:05;6.30;;;3.50;;
55350;SDS011;62194;49.480;10.986;2023-02-03T00:16:11;5.45;;;3.47;;
55350;SDS011;62194;49.480;10.986;2023-02-03T00:16:16;5.67;;;3.47;;
55350;SDS011;62194;49.480;10.986;2023-02-03T00:16:22;5.23;;;3.37;;
55350;SDS011;62194;49.480;10.986;2023-02-03T00:16:27;6.25;;;3.50;;
55350;SDS011;62194;49.480;10.986;2023-02-03T00:16:33;6.37;;;3.50;;
55350;SDS011;62194;49.480;10.986;2023-02-03T00:16:39;6.50;;;3.55;;
55350;SDS011;62194;49.480;10.986;2023-02-03T00:16:44;6.38;;;3.60;;
55350;SDS011;62194;49.480;10.986;2023-02-03T00:16:49;6.70;;;3.57;;
55350;SDS011;62194;49.480;10.986;2023-02-03T00:16:54;6.60;;;3.53;;
55350;SDS011;62194;49.480;10.986;2023-02-03T00:17:00;6.13;;;3.50;;
55350;SDS011;62194;49.480;10.986;2023-02-03T00:17:08;6.46;;;3.39;;
55350;SDS011;62194;49.480;10.986;2023-02-03T00:17:13;6.47;;;3.50;;
55350;SDS011;62194;49.480;10.986;2023-02-03T00:17:19;6.05;;;3.70;;
55350;SDS011;62194;49.480;10.986;2023-02-03T00:17:24;5.80;;;3.80;;
55350;SDS011;62194;49.480;10.986;2023-02-03T00:17:29;5.30;;;3.77;;
55350;SDS011;62194;49.480;10.986;2023-02-03T00:17:35;5.18;;;3.88;;
55350;SDS011;62194;49.480;10.986;2023-02-03T00:17:40;5.67;;;3.70;;
55350;SDS011;62194;49.480;10.986;2023-02-03T00:17:45;5.73;;;3.60;;
55350;SDS011;62194;49.480;10.986;2023-02-03T00:17:50;5.70;;;3.47;;
55350;SDS011;62194;49.480;10.986;2023-02-03T00:17:56;5.95;;;3.53;;
55350;SDS011;62194;49.480;10.986;2023-02-03T00:18:01;5.67;;;3.50;;
55350;SDS011;62194;49.480;10.986;2023-02-03T00:18:06;6.90;;;3.67;;
55350;SDS011;62194;49.480;10.986;2023-02-03T00:18:12;5.90;;;3.72;;
55350;SDS011;62194;49.480;10.986;2023-02-03T00:18:17;5.63;;;3.73;;
55350;SDS011;62194;49.480;10.986;2023-02-03T00:18:22;5.57;;;3.80;;
55350;SDS011;62194;49.480;10.986;2023-02-03T00:18:28;6.68;;;3.80;;
55350;SDS011;62194;49.480;10.986;2023-02-03T00:18:33;5.97;;;3.80;;
55350;SDS011;62194;49.480;10.986;2023-02-03T00:18:38;5.23;;;3.70;;
55350;SDS011;62194;49.480;10.986;2023-02-03T00:18:43;5.70;;;3.77;;
55350;SDS011;62194;49.480;10.986;2023-02-03T00:18:49;6.28;;;3.83;;
55350;SDS011;62194;49.480;10.986;2023-02-03T00:18:54;6.30;;;3.80;;
55350;SDS011;62194;49.480;10.986;2023-02-03T00:18:59;5.97;;;3.90;;
55350;SDS011;62194;49.480;10.986;2023-02-03T00:19:04;6.63;;;3.90;;
55350;SDS011;62194;49.480;10.986;2023-02-03T00:19:10;6.60;;;3.90;;
55350;SDS011;62194;49.480;10.986;2023-02-03T00:19:15;5.83;;;3.73;;
55350;SDS011;62194;49.480;10.986;2023-02-03T00:19:20;5.97;;;3.60;;
55350;SDS011;62194;49.480;10.986;2023-02-03T00:19:26;6.07;;;3.47;;
55350;SDS011;62194;49.480;10.986;2023-02-03T00:19:31;5.60;;;3.37;;
55350;SDS011;62194;49.480;10.986;2023-02-03T00:19:36;5.75;;;3.40;;
55350;SDS011;62194;49.480;10.986;2023-02-03T00:19:42;6.80;;;3.60;;
55350;SDS011;62194;49.480;10.986;2023-02-03T00:19:47;6.97;;;3.60;;
55350;SDS011;62194;49.480;10.986;2023-02-03T00:19:53;6.77;;;3.67;;
55350;SDS011;62194;49.480;10.986;2023-02-03T00:19:59;6.30;;;3.67;;
55350;SDS011;62194;49.480;10.986;2023-02-03T00:20:04;5.97;;;3.57;;
55350;SDS011;62194;49.480;10.986;2023-02-03T00:20:10;6.05;;;3.40;;
55350;SDS011;62194;49.480;10.986;2023-02-03T00:20:16;6.07;;;3.47;;
55350;SDS011;62194;49.480;10.986;2023-02-03T00:20:21;5.97;;;3.47;;
55350;SDS011;62194;49.480;10.986;2023-02-03T00:20:26;6.50;;;3.47;;
55350;SDS011;62194;49.480;10.986;2023-02-03T00:20:32;7.17;;;3.60;;
55350;SDS011;62194;49.480;10.986;2023-02-03T00:20:37;6.97;;;3.57;;
55350;SDS011;62194;49.480;10.986;2023-02-03T00:20:42;6.10;;;3.50;;
55350;SDS011;62194;49.480;10.986;2023-02-03T00:20:48;5.80;;;3.37;;
55350;SDS011;62194;49.480;10.986;2023-02-03T00:20:53;5.20;;;3.30;;
55350;SDS011;62194;49.480;10.986;2023-02-03T00:20:58;5.10;;;3.38;;
55350;SDS011;62194;49.480;10.986;2023-02-03T00:21:04;5.37;;;3.47;;
55350;SDS011;62194;49.480;10.986;2023-02-03T00:21:10;5.35;;;3.67;;
55350;SDS011;62194;49.480;10.986;2023-02-03T00:21:15;5.55;;;3.85;;
55350;SDS011;62194;49.480;10.986;2023-02-03T00:21:21;6.20;;;4.00;;
55350;SDS011;62194;49.480;10.986;2023-02-03T00:21:26;6.30;;;4.10;;
55350;SDS011;62194;49.480;10.986;2023-02-03T00:21:32;5.40;;;4.03;;
55350;SDS011;62194;49.480;10.986;2023-02-03T00:21:37;5.20;;;3.78;;
55350;SDS011;62194;49.480;10.986;2023-02-03T00:21:42;5.00;;;3.60;;
55350;SDS011;62194;49.480;10.986;2023-02-03T00:21:48;5.10;;;3.53;;
55350;SDS011;62194;49.480;10.986;2023-02-03T00:21:53;4.95;;;3.33;;
55350;SDS011;62194;49.480;10.986;2023-02-03T00:21:58;5.83;;;3.30;;
55350;SDS011;62194;49.480;10.986;2023-02-03T00:22:04;6.40;;;3.37;;
55350;SDS011;62194;49.480;10.986;2023-02-03T00:22:09;6.65;;;3.40;;
55350;SDS011;62194;49.480;10.986;2023-02-03T00:22:14;7.03;;;3.50;;
55350;SDS011;62194;49.480;10.986;2023-02-03T00:22:20;6.53;;;3.50;;
55350;SDS011;62194;49.480;10.986;2023-02-03T00:22:25;6.65;;;3.47;;
55350;SDS011;62194;49.480;10.986;2023-02-03T00:22:30;6.13;;;3.60;;
55350;SDS011;62194;49.480;10.986;2023-02-03T00:22:36;5.63;;;3.50;;
55350;SDS011;62194;49.480;10.986;2023-02-03T00:22:41;5.70;;;3.58;;
55350;SDS011;62194;49.480;10.986;2023-02-03T00:22:46;5.13;;;3.43;;
55350;SDS011;62194;49.480;10.986;2023-02-03T00:22:52;5.10;;;3.50;;
55350;SDS011;62194;49.480;10.986;2023-02-03T00:23:04;5.47;;;3.53;;
55350;SDS011;62194;49.480;10.986;2023-02-03T00:23:10;5.05;;;3.47;;
55350;SDS011;62194;49.480;10.986;2023-02-03T00:23:16;4.87;;;3.50;;
55350;SDS011;62194;49.480;10.986;2023-02-03T00:23:21;4.77;;;3.30;;
55350;SDS011;62194;49.480;10.986;2023-02-03T00:23:26;4.40;;;3.30;;
55350;SDS011;62194;49.480;10.986;2023-02-03T00:23:35;4.58;;;3.30;;
55350;SDS011;62194;49.480;10.986;2023-02-03T00:23:41;4.43;;;3.33;;
55350;SDS011;62194;49.480;10.986;2023-02-03T00:23:46;5.00;;;3.40;;
55350;SDS011;62194;49.480;10.986;2023-02-03T00:23:52;5.88;;;3.53;;
55350;SDS011;62194;49.480;10.986;2023-02-03T00:23:58;6.17;;;3.60;;
55350;SDS011;62194;49.480;10.986;2023-02-03T00:24:03;6.30;;;3.50;;
55350;SDS011;62194;49.480;10.986;2023-02-03T00:24:09;6.55;;;3.63;;
55350;SDS011;62194;49.480;10.986;2023-02-03T00:24:15;6.93;;;3.70;;
55350;SDS011;62194;49.480;10.986;2023-02-03T00:24:22;5.93;;;3.60;;
55350;SDS011;62194;49.480;10.986;2023-02-03T00:24:28;6.63;;;3.60;;
55350;SDS011;62194;49.480;10.986;2023-02-03T00:24:33;6.97;;;3.73;;
55350;SDS011;62194;49.480;10.986;2023-02-03T00:24:38;7.03;;;3.67;;
55350;SDS011;62194;49.480;10.986;2023-02-03T00:24:43;6.53;;;3.60;;
55350;SDS011;62194;49.480;10.986;2023-02-03T00:24:49;6.43;;;3.67;;
55350;SDS011;62194;49.480;10.986;2023-02-03T00:24:54;5.60;;;3.70;;
55350;SDS011;62194;49.480;10.986;2023-02-03T00:24:59;4.30;;;3.70;;
55350;SDS011;62194;49.480;10.986;2023-02-03T00:25:04;4.20;;;3.58;;
55350;SDS011;62194;49.480;10.986;2023-02-03T00:25:10;5.00;;;3.75;;
55350;SDS011;62194;49.480;10.986;2023-02-03T00:25:16;5.37;;;3.80;;
55350;SDS011;62194;49.480;10.986;2023-02-03T00:25:22;5.60;;;3.90;;
55350;SDS011;62194;49.480;10.986;2023-02-03T00:25:29;5.93;;;3.90;;
55350;SDS011;62194;49.480;10.986;2023-02-03T00:25:34;5.77;;;3.97;;
55350;SDS011;62194;49.480;10.986;2023-02-03T00:25:40;4.47;;;3.75;;
55350;SDS011;62194;49.480;10.986;2023-02-03T00:25:45;4.27;;;3.70;;
55350;SDS011;62194;49.480;10.986;2023-02-03T00:25:51;4.00;;;3.60;;
55350;SDS011;62194;49.480;10.986;2023-02-03T00:26:04;3.96;;;3.56;;
55350;SDS011;62194;49.480;10.986;2023-02-03T00:26:15;4.60;;;3.45;;
55350;SDS011;62194;49.480;10.986;2023-02-03T00:26:22;5.32;;;3.40;;
55350;SDS011;62194;49.480;10.986;2023-02-03T00:26:29;5.50;;;3.50;;
55350;SDS011;62194;49.480;10.986;2023-02-03T00:26:39;6.03;;;3.53;;
55350;SDS011;62194;49.480;10.986;2023-02-03T00:26:45;5.53;;;3.60;;
55350;SDS011;62194;49.480;10.986;2023-02-03T00:26:50;5.47;;;3.60;;
55350;SDS011;62194;49.480;10.986;2023-02-03T00:26:56;5.23;;;3.43;;
55350;SDS011;62194;49.480;10.986;2023-02-03T00:27:01;4.80;;;3.40;;
55350;SDS011;62194;49.480;10.986;2023-02-03T00:27:06;4.13;;;3.33;;
55350;SDS011;62194;49.480;10.986;2023-02-03T00:27:11;3.90;;;3.37;;
55350;SDS011;62194;49.480;10.986;2023-02-03T00:27:18;4.13;;;3.45;;
55350;SDS011;62194;49.480;10.986;2023-02-03T00:27:23;4.72;;;3.60;;
55350;SDS011;62194;49.480;10.986;2023-02-03T00:27:28;5.30;;;3.60;;
55350;SDS011;62194;49.480;10.986;2023-02-03T00:27:34;5.40;;;3.67;;
55350;SDS011;62194;49.480;10.986;2023-02-03T00:27:39;5.82;;;3.70;;
55350;SDS011;62194;49.480;10.986;2023-02-03T00:27:44;7.10;;;3.77;;
55350;SDS011;62194;49.480;10.986;2023-02-03T00:27:49;7.00;;;3.80;;
55350;SDS011;62194;49.480;10.986;2023-02-03T00:27:55;7.07;;;3.80;;
55350;SDS011;62194;49.480;10.986;2023-02-03T00:28:00;7.07;;;3.88;;
55350;SDS011;62194;49.480;10.986;2023-02-03T00:28:06;7.40;;;3.97;;
55350;SDS011;62194;49.480;10.986;2023-02-03T00:28:11;7.05;;;3.85;;
55350;SDS011;62194;49.480;10.986;2023-02-03T00:28:16;6.40;;;3.67;;
55350;SDS011;62194;49.480;10.986;2023-02-03T00:28:22;6.03;;;3.58;;
55350;SDS011;62194;49.480;10.986;2023-02-03T00:28:27;5.83;;;3.67;;
55350;SDS011;62194;49.480;10.986;2023-02-03T00:28:35;5.80;;;3.72;;
55350;SDS011;62194;49.480;10.986;2023-02-03T00:28:41;5.50;;;3.70;;
55350;SDS011;62194;49.480;10.986;2023-02-03T00:28:46;5.60;;;3.70;;
55350;SDS011;62194;49.480;10.986;2023-02-03T00:28:52;5.47;;;3.75;;
55350;SDS011;62194;49.480;10.986;2023-02-03T00:28:58;5.60;;;3.50;;
55350;SDS011;62194;49.480;10.986;2023-02-03T00:29:03;5.33;;;3.30;;
55350;SDS011;62194;49.480;10.986;2023-02-03T00:29:09;5.78;;;3.30;;
55350;SDS011;62194;49.480;10.986;2023-02-03T00:29:14;5.63;;;3.27;;
55350;SDS011;62194;49.480;10.986;2023-02-03T00:29:19;5.63;;;3.20;;
55350;SDS011;62194;49.480;10.986;2023-02-03T00:29:28;5.34;;;3.20;;
55350;SDS011;62194;49.480;10.986;2023-02-03T00:29:34;5.38;;;3.20;;
55350;SDS011;62194;49.480;10.986;2023-02-03T00:29:42;5.40;;;3.23;;
55350;SDS011;62194;49.480;10.986;2023-02-03T00:29:47;6.12;;;3.43;;
55350;SDS011;62194;49.480;10.986;2023-02-03T00:29:52;7.03;;;3.50;;
55350;SDS011;62194;49.480;10.986;2023-02-03T00:29:57;7.13;;;3.45;;
55350;SDS011;62194;49.480;10.986;2023-02-03T00:30:03;7.33;;;3.67;;
55350;SDS011;62194;49.480;10.986;2023-02-03T00:30:10;6.63;;;3.77;;
55350;SDS011;62194;49.480;10.986;2023-02-03T00:30:16;6.30;;;3.70;;
55350;SDS011;62194;49.480;10.986;2023-02-03T00:30:21;5.80;;;3.70;;
55350;SDS011;62194;49.480;10.986;2023-02-03T00:30:26;5.90;;;3.88;;
55350;SDS011;62194;49.480;10.986;2023-02-03T00:30:33;5.43;;;3.80;;
55350;SDS011;62194;49.480;10.986;2023-02-03T00:30:39;5.50;;;3.70;;
55350;SDS011;62194;49.480;10.986;2023-02-03T00:30:44;5.50;;;3.70;;
55350;SDS011;62194;49.480;10.986;2023-02-03T00:30:50;5.47;;;3.60;;
55350;SDS011;62194;49.480;10.986;2023-02-03T00:30:57;6.33;;;3.60;;
55350;SDS011;62194;49.480;10.986;2023-02-03T00:31:03;6.80;;;3.70;;
55350;SDS011;62194;49.480;10.986;2023-02-03T00:31:19;6.88;;;3.70;;
55350;SDS011;62194;49.480;10.986;2023-02-03T00:31:25;6.66;;;3.91;;
55350;SDS011;62194;49.480;10.986;2023-02-03T00:31:31;6.77;;;4.00;;
55350;SDS011;62194;49.480;10.986;2023-02-03T00:31:36;6.50;;;4.15;;
55350;SDS011;62194;49.480;10.986;2023-02-03T00:31:42;6.60;;;4.07;;
55350;SDS011;62194;49.480;10.986;2023-02-03T00:31:47;6.33;;;3.90;;
55350;SDS011;62194;49.480;10.986;2023-02-03T00:31:52;5.38;;;3.80;;
55350;SDS011;62194;49.480;10.986;2023-02-03T00:31:58;4.20;;;3.80;;
55350;SDS011;62194;49.480;10.986;2023-02-03T00:32:03;3.80;;;3.37;;
55350;SDS011;62194;49.480;10.986;2023-02-03T00:32:08;3.80;;;3.40;;
55350;SDS011;62194;49.480;10.986;2023-02-03T00:32:14;3.67;;;3.30;;
55350;SDS011;62194;49.480;10.986;2023-02-03T00:32:19;3.80;;;3.43;;
55350;SDS011;62194;49.480;10.986;2023-02-03T00:32:24;4.13;;;3.55;;
55350;SDS011;62194;49.480;10.986;2023-02-03T00:32:30;5.10;;;3.60;;
55350;SDS011;62194;49.480;10.986;2023-02-03T00:32:35;6.18;;;3.78;;
55350;SDS011;62194;49.480;10.986;2023-02-03T00:32:41;7.40;;;3.90;;
55350;SDS011;62194;49.480;10.986;2023-02-03T00:32:46;8.15;;;4.20;;
55350;SDS011;62194;49.480;10.986;2023-02-03T00:32:51;8.60;;;4.20;;
55350;SDS011;62194;49.480;10.986;2023-02-03T00:32:57;8.47;;;4.07;;
55350;SDS011;62194;49.480;10.986;2023-02-03T00:33:02;8.05;;;4.00;;
55350;SDS011;62194;49.480;10.986;2023-02-03T00:33:08;6.60;;;4.00;;
55350;SDS011;62194;49.480;10.986;2023-02-03T00:33:13;6.63;;;3.85;;
55350;SDS011;62194;49.480;10.986;2023-02-03T00:33:18;6.43;;;3.83;;
55350;SDS011;62194;49.480;10.986;2023-02-03T00:33:24;5.17;;;3.80;;
55350;SDS011;62194;49.480;10.986;2023-02-03T00:33:29;5.00;;;3.80;;
55350;SDS011;62194;49.480;10.986;2023-02-03T00:33:34;4.37;;;3.70;;
55350;SDS011;62194;49.480;10.986;2023-02-03T00:33:40;4.00;;;3.53;;
55350;SDS011;62194;49.480;10.986;2023-02-03T00:33:45;4.00;;;3.47;;
55350;SDS011;62194;49.480;10.986;2023-02-03T00:33:55;5.07;;;3.57;;